Time;durP1;ratioP1;P1;durP2;ratioP2;P2;SDS_P1;SDS_P2;PMS_P1;PMS_P2;Temp;Humidity;BMP_temperature;BMP_pressure;BME280_temperature;BME280_humidity;BME280_pressure;Samples;Min_cycle;Max_cycle;Signal;HPM_P1;HPM_P2
2022/06/21 00:00:43;;;;;;;4.30;3.28;;;;;;;12.52;68.75;100386.75;5071650;28;20056;-81
2022/06/21 00:03:15;;;;;;;5.15;3.97;;;;;;;12.53;68.87;100385.56;5066373;28;20056;-81
2022/06/21 00:05:45;;;;;;;4.57;3.20;;;;;;;12.52;68.83;100381.16;5071586;28;20409;-80
2022/06/21 00:08:15;;;;;;;5.05;3.70;;;;;;;12.52;69.08;100383.13;5072068;28;20061;-80
2022/06/21 00:10:43;;;;;;;4.68;3.22;;;;;;;12.48;69.03;100380.16;5070250;28;20485;-80
2022/06/21 00:13:13;;;;;;;4.72;3.03;;;;;;;12.42;68.98;100375.91;5075493;28;20378;-79
2022/06/21 00:15:41;;;;;;;4.35;3.35;;;;;;;12.42;68.94;100370.31;5075652;28;20053;-80
2022/06/21 00:18:18;;;;;;;6.38;3.65;;;;;;;12.40;68.79;100386.56;5075948;28;20075;-80
2022/06/21 00:20:49;;;;;;;8.05;3.78;;;;;;;12.35;68.80;100384.78;5072281;28;20448;-80
2022/06/21 00:23:21;;;;;;;5.10;3.78;;;;;;;12.33;68.68;100389.88;5075887;28;20052;-81
2022/06/21 00:25:49;;;;;;;4.47;3.17;;;;;;;12.33;68.96;100389.06;5077644;28;20044;-80
2022/06/21 00:28:17;;;;;;;4.53;3.45;;;;;;;12.22;68.91;100394.16;5076523;28;20508;-80
2022/06/21 00:30:49;;;;;;;5.63;3.83;;;;;;;12.16;69.15;100395.44;5073007;28;20055;-79
2022/06/21 00:33:27;;;;;;;9.18;4.00;;;;;;;12.06;69.87;100391.00;5066021;28;20044;-80
2022/06/21 00:35:57;;;;;;;7.75;3.42;;;;;;;12.06;69.74;100388.19;5075326;28;20057;-80
2022/06/21 00:38:28;;;;;;;5.43;3.45;;;;;;;12.07;69.49;100381.44;5075300;28;20056;-80
2022/06/21 00:40:59;;;;;;;5.53;3.50;;;;;;;12.08;69.23;100383.13;5073414;28;20456;-80
2022/06/21 00:43:30;;;;;;;5.03;3.75;;;;;;;12.05;69.64;100388.53;5073455;28;20270;-80
2022/06/21 00:45:59;;;;;;;5.78;3.92;;;;;;;12.03;69.40;100388.84;5075183;28;20052;-80
2022/06/21 00:48:34;;;;;;;4.53;3.28;;;;;;;12.00;69.70;100381.13;5074821;28;20412;-80
2022/06/21 00:51:07;;;;;;;4.65;3.45;;;;;;;12.00;69.66;100394.28;5079091;28;20048;-80
2022/06/21 00:53:37;;;;;;;6.25;3.65;;;;;;;11.98;69.96;100387.03;5071654;28;20136;-80
2022/06/21 00:56:11;;;;;;;4.65;3.50;;;;;;;11.93;70.14;100389.19;5074748;28;20071;-80
2022/06/21 00:58:39;;;;;;;4.97;3.40;;;;;;;11.91;70.18;100383.09;5075112;28;20396;-80
2022/06/21 02:53:35;;;;;;;6.68;4.60;;;;;;;10.83;72.41;100343.44;4951786;29;20063;-76
2022/06/21 03:11:04;;;;;;;4.80;4.22;;;;;;;10.76;72.47;100349.47;4955094;28;20081;-79
2022/06/21 03:21:37;;;;;;;6.50;4.40;;;;;;;10.72;72.16;100342.91;4931684;28;20559;-80
2022/06/21 03:30:55;;;;;;;7.65;5.18;;;;;;;10.79;72.45;100336.88;4967742;28;20529;-80
2022/06/21 03:33:23;;;;;;;6.22;4.00;;;;;;;10.72;72.68;100321.44;5052640;28;20044;-80
2022/06/21 03:35:51;;;;;;;7.35;4.50;;;;;;;10.69;73.17;100321.25;5046513;28;20045;-83
2022/06/21 03:38:20;;;;;;;6.25;4.43;;;;;;;10.67;74.29;100329.13;5043894;28;20646;-83
2022/06/21 03:43:37;;;;;;;7.13;4.25;;;;;;;10.42;74.09;100325.03;5044028;28;20057;-83
2022/06/21 03:46:10;;;;;;;8.00;4.03;;;;;;;10.28;74.49;100313.91;5047105;28;20049;-82
2022/06/21 03:48:43;;;;;;;5.45;4.20;;;;;;;10.54;74.40;100319.66;5054064;28;20053;-82
2022/06/21 03:51:15;;;;;;;8.93;4.47;;;;;;;10.51;73.45;100311.97;5048716;28;20516;-82
2022/06/21 03:53:46;;;;;;;6.00;5.18;;;;;;;9.99;75.46;100303.19;5056645;28;20053;-82
2022/06/21 03:56:19;;;;;;;4.95;4.20;;;;;;;10.42;74.54;100291.63;5045274;28;20055;-81
2022/06/21 03:58:53;;;;;;;6.60;4.43;;;;;;;10.43;74.00;100291.28;5057051;28;20056;-81
2022/06/21 04:01:28;;;;;;;11.68;4.72;;;;;;;10.59;73.22;100288.91;5062125;28;20071;-81
2022/06/21 04:04:00;;;;;;;7.57;4.65;;;;;;;10.45;74.37;100289.00;5076228;28;20485;-80
2022/06/21 04:06:36;;;;;;;8.15;4.68;;;;;;;10.69;73.61;100304.56;5076708;28;20067;-80
2022/06/21 04:09:07;;;;;;;8.13;5.32;;;;;;;10.44;74.44;100304.06;5076331;28;20052;-79
2022/06/21 04:11:44;;;;;;;10.27;5.25;;;;;;;10.61;74.30;100311.72;5076479;28;20049;-79
2022/06/21 04:14:19;;;;;;;6.35;4.38;;;;;;;10.55;74.25;100308.22;5074982;28;20484;-79
2022/06/21 04:16:54;;;;;;;7.47;5.38;;;;;;;10.46;74.55;100307.34;5057939;28;20049;-80
2022/06/21 04:19:30;;;;;;;7.65;4.50;;;;;;;10.59;74.24;100310.38;5056824;28;20489;-79
2022/06/21 04:22:02;;;;;;;9.93;4.60;;;;;;;10.70;74.00;100317.31;5057541;28;20049;-79
2022/06/21 04:24:36;;;;;;;8.10;4.95;;;;;;;10.37;75.36;100328.72;5061700;28;20507;-80
2022/06/21 04:27:11;;;;;;;5.60;4.38;;;;;;;10.64;74.25;100340.88;5076511;28;20483;-79
2022/06/21 04:29:43;;;;;;;5.93;4.65;;;;;;;10.78;73.87;100352.78;5071719;28;20048;-80
2022/06/21 04:32:16;;;;;;;6.07;4.40;;;;;;;11.10;73.02;100348.81;5074626;28;20044;-80
2022/06/21 04:34:49;;;;;;;5.60;4.20;;;;;;;11.33;72.45;100359.91;5073496;28;20049;-80
2022/06/21 04:37:21;;;;;;;5.18;4.57;;;;;;;11.50;71.77;100367.53;5067770;28;20060;-79
2022/06/21 04:39:52;;;;;;;5.35;4.32;;;;;;;11.63;71.49;100355.41;5073077;28;20049;-79
2022/06/21 04:42:26;;;;;;;8.45;4.85;;;;;;;11.77;70.94;100336.56;5074675;28;20048;-79
2022/06/21 04:45:06;;;;;;;7.50;5.38;;;;;;;11.93;70.63;100334.16;5074526;28;20052;-79
2022/06/21 04:47:39;;;;;;;9.55;5.22;;;;;;;12.05;69.98;100329.91;5075299;28;20052;-79
2022/06/21 04:50:20;;;;;;;7.28;5.35;;;;;;;12.13;70.04;100346.66;5075100;28;20056;-79
2022/06/21 04:52:54;;;;;;;7.57;5.25;;;;;;;12.21;69.36;100355.38;5075056;28;20071;-80
2022/06/21 04:55:29;;;;;;;7.88;5.55;;;;;;;12.29;69.39;100362.94;5075204;28;20055;-79
2022/06/21 04:57:56;;;;;;;7.75;5.93;;;;;;;12.31;69.58;100361.44;5074595;28;20059;-79
2022/06/21 05:00:23;;;;;;;5.53;4.93;;;;;;;12.30;69.70;100348.63;5075155;28;20052;-79
2022/06/21 05:02:55;;;;;;;5.38;4.85;;;;;;;12.39;69.79;100337.47;5075418;28;20439;-80
2022/06/21 05:05:26;;;;;;;7.63;5.78;;;;;;;12.44;70.07;100328.09;5075411;28;20044;-80
2022/06/21 05:07:59;;;;;;;6.93;5.72;;;;;;;12.47;69.61;100321.81;5074932;28;20059;-80
2022/06/21 05:10:29;;;;;;;9.73;5.95;;;;;;;12.57;69.24;100316.69;5074926;28;20052;-80
2022/06/21 05:13:00;;;;;;;8.80;6.20;;;;;;;12.66;69.32;100301.91;5075327;28;20499;-80
2022/06/21 05:15:32;;;;;;;8.30;5.50;;;;;;;12.73;69.05;100305.81;5075119;28;20052;-80
2022/06/21 05:18:06;;;;;;;9.32;6.07;;;;;;;12.82;68.73;100308.59;5074748;28;20060;-80
2022/06/21 05:20:36;;;;;;;8.75;5.63;;;;;;;12.90;68.62;100304.13;5074949;28;20396;-80
2022/06/21 05:23:08;;;;;;;8.52;6.00;;;;;;;12.93;68.24;100311.84;5074876;28;20499;-79
2022/06/21 05:25:38;;;;;;;7.35;4.85;;;;;;;12.99;68.31;100321.69;5074542;28;20053;-79
2022/06/21 05:28:14;;;;;;;7.90;5.78;;;;;;;13.09;68.38;100332.50;5074253;28;20158;-80
2022/06/21 05:30:46;;;;;;;8.07;6.45;;;;;;;13.17;68.19;100317.69;5074774;28;20052;-80
2022/06/21 05:33:19;;;;;;;8.57;5.70;;;;;;;13.20;68.17;100310.59;5074444;28;20064;-80
2022/06/21 05:35:48;;;;;;;7.03;4.78;;;;;;;13.26;67.99;100306.44;5074633;28;20063;-79
2022/06/21 05:38:21;;;;;;;6.40;4.65;;;;;;;13.29;67.72;100305.81;5074868;28;20061;-80
2022/06/21 05:40:55;;;;;;;7.47;5.18;;;;;;;13.39;68.03;100302.59;5078181;28;20369;-80
2022/06/21 05:43:31;;;;;;;9.90;5.95;;;;;;;13.46;68.12;100293.72;5074614;28;20059;-80
2022/06/21 05:46:01;;;;;;;8.20;6.75;;;;;;;13.53;68.59;100293.16;5074721;28;20051;-80
2022/06/21 05:48:33;;;;;;;10.98;6.47;;;;;;;13.58;68.50;100296.56;5074581;28;20063;-79
2022/06/21 05:51:03;;;;;;;9.88;6.50;;;;;;;13.59;68.51;100286.22;5078032;28;20497;-80
2022/06/21 05:53:33;;;;;;;7.22;6.25;;;;;;;13.68;68.60;100275.78;5074560;28;20052;-80
2022/06/21 05:56:06;;;;;;;8.55;5.63;;;;;;;13.79;68.43;100288.19;5074475;28;20055;-80
2022/06/21 05:58:38;;;;;;;6.93;6.20;;;;;;;13.88;68.11;100295.72;5073860;28;20055;-80
2022/06/21 06:01:10;;;;;;;8.52;6.15;;;;;;;14.00;67.93;100299.41;5077234;28;20059;-79
2022/06/21 06:03:47;;;;;;;8.18;6.10;;;;;;;14.12;67.31;100290.25;5094039;28;20078;-80
2022/06/21 06:06:18;;;;;;;9.15;5.75;;;;;;;14.19;66.86;100296.13;5093905;28;20055;-80
2022/06/21 06:08:50;;;;;;;6.93;5.72;;;;;;;14.28;67.21;100287.63;5092540;28;20056;-80
2022/06/21 06:11:22;;;;;;;12.48;7.07;;;;;;;14.40;67.36;100287.69;5094321;28;20070;-80
2022/06/21 06:13:53;;;;;;;8.77;7.05;;;;;;;14.49;67.16;100287.59;5093705;28;20499;-80
2022/06/21 06:16:37;;;;;;;8.73;5.97;;;;;;;14.60;66.66;100293.63;5093402;28;20079;-80
2022/06/21 06:19:12;;;;;;;7.60;6.28;;;;;;;14.72;66.16;100290.00;5093374;28;20068;-80
2022/06/21 06:21:44;;;;;;;5.68;5.03;;;;;;;14.86;65.81;100295.31;5093949;28;20480;-80
2022/06/21 06:24:20;;;;;;;6.57;5.75;;;;;;;14.96;66.18;100294.84;5094008;28;20480;-80
2022/06/21 06:26:54;;;;;;;9.75;5.45;;;;;;;15.08;65.09;100296.88;5094337;28;20048;-80
2022/06/21 06:29:28;;;;;;;6.05;4.65;;;;;;;15.15;64.22;100294.28;5095030;28;20643;-80
2022/06/21 06:32:02;;;;;;;6.63;4.18;;;;;;;15.32;63.91;100304.47;5093888;28;20056;-80
2022/06/21 06:34:35;;;;;;;7.97;4.90;;;;;;;15.40;65.00;100301.53;5098516;28;20052;-80
2022/06/21 06:37:07;;;;;;;8.73;4.85;;;;;;;15.58;63.56;100304.94;5093962;28;20059;-80
2022/06/21 06:39:36;;;;;;;7.90;4.90;;;;;;;15.72;63.00;100310.19;5093740;28;20480;-80
2022/06/21 06:42:06;;;;;;;;;;;;;;;15.86;62.72;100307.03;5094300;28;20055;-80
2022/06/21 06:44:37;;;;;;;8.93;5.03;;;;;;;15.98;61.99;100308.97;5093669;28;19920;-80
2022/06/21 06:47:13;;;;;;;9.23;4.93;;;;;;;16.15;61.03;100302.25;5094026;28;20052;-80
2022/06/21 06:49:47;;;;;;;7.03;4.70;;;;;;;16.29;61.47;100318.72;5093550;28;20052;-80
2022/06/21 06:52:21;;;;;;;8.13;5.20;;;;;;;16.39;60.26;100315.41;5093413;28;20052;-80
2022/06/21 06:54:53;;;;;;;7.65;4.20;;;;;;;16.54;60.22;100316.63;5093442;28;20044;-81
2022/06/21 06:57:28;;;;;;;8.70;4.40;;;;;;;16.71;59.74;100315.47;5093883;28;20047;-80
2022/06/21 06:59:56;;;;;;;8.07;4.28;;;;;;;16.80;59.86;100331.03;5093107;28;20415;-80
2022/06/21 07:02:28;;;;;;;8.45;4.30;;;;;;;16.94;59.09;100333.41;5092859;28;20063;-80
2022/06/21 07:05:07;;;;;;;6.18;3.80;;;;;;;17.12;58.92;100333.09;5092867;28;20048;-80
2022/06/21 07:07:43;;;;;;;6.63;3.88;;;;;;;17.23;58.14;100339.78;5093406;28;20048;-80
2022/06/21 07:10:17;;;;;;;6.00;3.75;;;;;;;17.37;58.16;100337.34;5092983;28;20055;-81
2022/06/21 07:12:45;;;;;;;6.38;3.83;;;;;;;17.54;58.14;100338.97;5093101;28;20503;-80
2022/06/21 07:15:13;;;;;;;9.95;4.15;;;;;;;17.69;58.35;100330.88;5092829;28;20388;-81
2022/06/21 07:17:43;;;;;;;11.43;4.05;;;;;;;17.85;57.38;100348.59;5093217;28;20059;-80
2022/06/21 07:20:18;;;;;;;7.07;3.60;;;;;;;17.93;57.01;100343.91;5093126;28;20044;-80
2022/06/21 07:22:45;;;;;;;9.60;4.13;;;;;;;18.18;56.91;100352.94;5092949;28;20055;-80
2022/06/21 07:25:20;;;;;;;6.47;3.40;;;;;;;18.36;56.23;100342.06;5093312;28;20126;-80
2022/06/21 07:27:52;;;;;;;5.82;3.75;;;;;;;18.50;55.62;100345.19;5092492;28;20079;-78
2022/06/21 07:30:22;;;;;;;5.95;3.22;;;;;;;18.78;54.69;100335.63;5098170;28;20059;-80
2022/06/21 07:32:55;;;;;;;5.70;2.97;;;;;;;18.91;54.09;100337.13;5093011;28;20408;-80
2022/06/21 07:35:28;;;;;;;6.38;3.10;;;;;;;19.14;52.51;100337.13;5092449;28;20498;-80
2022/06/21 07:37:59;;;;;;;4.25;3.20;;;;;;;19.33;52.22;100326.97;5092888;28;20052;-80
2022/06/21 07:40:32;;;;;;;5.50;2.83;;;;;;;19.50;51.65;100328.47;5093360;28;20047;-80
2022/06/21 07:43:06;;;;;;;5.25;2.67;;;;;;;19.53;51.16;100322.88;5092818;28;20476;-80
2022/06/21 07:45:38;;;;;;;4.35;2.70;;;;;;;19.58;50.47;100322.53;5092444;28;20048;-80
2022/06/21 07:48:13;;;;;;;5.25;2.88;;;;;;;19.70;49.47;100315.03;5092410;28;20052;-80
2022/06/21 07:50:46;;;;;;;9.30;3.90;;;;;;;20.05;49.76;100311.94;5092394;28;20056;-80
2022/06/21 07:53:19;;;;;;;5.22;2.90;;;;;;;20.24;48.56;100303.34;5092843;28;20052;-80
2022/06/21 07:55:52;;;;;;;6.45;2.85;;;;;;;20.39;47.83;100297.81;5092719;28;20404;-80
2022/06/21 07:58:24;;;;;;;5.85;2.75;;;;;;;20.91;46.47;100290.34;5092453;28;20059;-80
2022/06/21 08:06:42;;;;;;;4.65;2.50;;;;;;;23.65;40.19;100276.13;5092717;28;20519;-80
2022/06/21 08:09:19;;;;;;;3.65;2.40;;;;;;;24.34;38.39;100276.75;5092609;28;20052;-80
2022/06/21 08:11:49;;;;;;;4.50;1.80;;;;;;;25.48;37.04;100266.66;5092619;28;20416;-80
2022/06/21 08:14:17;;;;;;;3.13;2.08;;;;;;;26.32;34.54;100266.13;5092199;28;20048;-80
2022/06/21 08:16:50;;;;;;;4.43;1.85;;;;;;;27.34;32.49;100277.75;5092361;28;20061;-80
2022/06/21 08:19:25;;;;;;;3.30;2.17;;;;;;;28.42;32.13;100264.22;5092797;28;20052;-79
2022/06/21 08:21:59;;;;;;;3.65;1.95;;;;;;;28.87;29.78;100257.91;5092476;28;20051;-78
2022/06/21 08:24:39;;;;;;;3.67;1.80;;;;;;;29.38;29.67;100266.09;5092158;28;20059;-78
2022/06/21 08:27:15;;;;;;;4.78;1.90;;;;;;;29.74;28.94;100257.38;5092016;28;20055;-78
2022/06/21 08:29:48;;;;;;;3.70;2.10;;;;;;;30.25;28.28;100253.88;5092088;28;20055;-78
2022/06/21 08:32:21;;;;;;;4.28;1.92;;;;;;;30.82;27.59;100251.31;5094176;28;20063;-79
2022/06/21 08:34:52;;;;;;;3.25;1.77;;;;;;;31.69;26.67;100256.66;5096015;28;20059;-79
2022/06/21 08:37:28;;;;;;;5.20;2.40;;;;;;;32.22;25.06;100247.31;5095883;28;20052;-79
2022/06/21 08:40:03;;;;;;;6.30;2.30;;;;;;;32.76;23.97;100246.03;5095596;28;20063;-79
2022/06/21 08:43:07;;;;;;;3.70;1.65;;;;;;;32.74;23.64;100242.81;5095917;28;20052;-79
2022/06/21 08:46:13;;;;;;;3.10;1.60;;;;;;;32.99;23.59;100241.00;5083281;28;20055;-79
2022/06/21 08:49:20;;;;;;;3.90;1.88;;;;;;;33.33;22.71;100230.53;5085465;28;20063;-79
2022/06/21 08:52:11;;;;;;;5.82;1.77;;;;;;;33.89;21.90;100231.38;5096208;28;20083;-79
2022/06/21 08:54:51;;;;;;;4.30;1.50;;;;;;;33.88;22.30;100221.09;5095496;28;20055;-80
2022/06/21 08:57:26;;;;;;;4.03;1.60;;;;;;;33.95;22.06;100212.09;5096123;28;20048;-80
2022/06/21 09:00:08;;;;;;;3.28;1.80;;;;;;;34.27;21.67;100210.63;5095208;28;20511;-80
2022/06/21 09:02:51;;;;;;;2.78;1.80;;;;;;;35.01;20.31;100213.25;5095057;28;20055;-80
2022/06/21 09:05:42;;;;;;;2.80;1.80;;;;;;;34.89;20.63;100217.16;5095695;28;20052;-79
2022/06/21 09:08:24;;;;;;;3.33;1.58;;;;;;;35.05;20.06;100210.16;5101491;28;20404;-80
2022/06/21 09:11:11;;;;;;;2.53;1.55;;;;;;;34.85;20.01;100205.75;5095386;28;20051;-80
2022/06/21 09:14:03;;;;;;;4.00;1.50;;;;;;;36.06;19.68;100199.94;5095123;28;20495;-80
2022/06/21 09:16:39;;;;;;;3.75;1.52;;;;;;;37.42;18.67;100183.34;5095098;28;20071;-79
2022/06/21 09:19:18;;;;;;;4.07;1.60;;;;;;;38.24;17.39;100194.06;5094855;28;20051;-80
2022/06/21 09:21:52;;;;;;;4.38;2.10;;;;;;;38.88;16.33;100192.72;5095054;28;20052;-80
2022/06/21 09:24:32;;;;;;;2.65;1.50;;;;;;;38.70;17.49;100193.13;5093480;28;20151;-80
2022/06/21 09:27:08;;;;;;;2.33;1.40;;;;;;;38.99;17.67;100192.03;5095315;28;20074;-80
2022/06/21 09:29:45;;;;;;;4.82;1.70;;;;;;;39.42;16.80;100186.19;5095307;28;20123;-80
2022/06/21 09:32:26;;;;;;;3.13;1.50;;;;;;;39.63;16.75;100195.53;5094788;28;20070;-80
2022/06/21 09:35:02;;;;;;;3.60;1.70;;;;;;;38.82;16.71;100188.97;5094587;28;20067;-80
2022/06/21 09:37:46;;;;;;;3.40;1.88;;;;;;;38.35;16.94;100176.72;5094934;28;20048;-80
2022/06/21 09:40:21;;;;;;;3.08;1.38;;;;;;;38.52;17.67;100173.97;5094945;28;20047;-80
2022/06/21 09:43:05;;;;;;;5.78;2.10;;;;;;;38.56;17.34;100171.63;5093627;28;20052;-80
2022/06/21 09:45:42;;;;;;;4.72;1.80;;;;;;;38.82;17.87;100165.69;5094206;28;20067;-80
2022/06/21 09:48:16;;;;;;;3.90;1.70;;;;;;;39.60;16.81;100160.81;5094686;28;20059;-80
2022/06/21 09:50:53;;;;;;;3.65;1.80;;;;;;;39.95;16.88;100163.28;5094929;28;20052;-80
2022/06/21 09:53:31;;;;;;;4.63;2.20;;;;;;;40.97;15.92;100159.03;5094406;28;20063;-80
2022/06/21 09:56:07;;;;;;;3.28;1.83;;;;;;;41.29;15.07;100158.66;5094763;28;20051;-80
2022/06/21 09:58:43;;;;;;;5.45;2.20;;;;;;;41.41;14.99;100141.06;5089354;28;20412;-80
2022/06/21 10:01:17;;;;;;;3.53;1.75;;;;;;;40.90;15.58;100150.00;5077127;28;20059;-80
2022/06/21 10:03:52;;;;;;;5.60;1.60;;;;;;;40.27;15.70;100143.41;5073863;28;20052;-80
2022/06/21 10:06:27;;;;;;;3.15;1.75;;;;;;;39.37;16.65;100134.47;5074685;28;20053;-81
2022/06/21 10:09:16;;;;;;;3.10;1.80;;;;;;;39.18;16.54;100125.38;5074495;28;20377;-80
2022/06/21 10:11:57;;;;;;;5.30;2.00;;;;;;;37.88;18.03;100133.13;5074247;28;20056;-80
2022/06/21 10:14:52;;;;;;;3.83;1.70;;;;;;;36.17;18.36;100125.53;5074073;28;20048;-80
2022/06/21 10:17:58;;;;;;;3.85;1.58;;;;;;;36.15;19.20;100133.94;5074009;28;20049;-80
2022/06/21 10:20:42;;;;;;;3.15;1.88;;;;;;;36.22;18.69;100134.84;5074128;28;20064;-80
2022/06/21 10:23:43;;;;;;;4.15;1.63;;;;;;;36.37;18.74;100113.22;5074852;28;20049;-79
2022/06/21 10:26:37;;;;;;;2.42;1.58;;;;;;;36.98;17.93;100105.91;5071365;28;20484;-80
2022/06/21 10:29:20;;;;;;;3.33;1.50;;;;;;;36.11;18.55;100103.53;5080720;28;20049;-80
2022/06/21 10:32:14;;;;;;;2.65;1.48;;;;;;;35.49;19.78;100111.06;5074951;28;20056;-80
2022/06/21 10:35:12;;;;;;;2.65;1.80;;;;;;;35.04;20.32;100118.81;5074882;28;20063;-80
2022/06/21 10:37:58;;;;;;;4.30;1.90;;;;;;;35.46;19.79;100112.88;5080783;28;20056;-79
2022/06/21 10:40:53;;;;;;;3.22;1.30;;;;;;;35.12;19.87;100123.75;5074449;28;20408;-80
2022/06/21 10:43:50;;;;;;;3.08;1.40;;;;;;;35.51;20.24;100126.69;5041040;28;20489;-80
2022/06/21 10:46:22;;;;;;;2.85;1.27;;;;;;;36.09;18.96;100120.63;5076819;28;20441;-80
2022/06/21 10:49:26;;;;;;;4.60;1.80;;;;;;;37.23;17.82;100126.84;5073890;28;20056;-80
2022/06/21 10:52:35;;;;;;;2.95;1.67;;;;;;;37.62;18.43;100132.38;5066706;28;20053;-80
2022/06/21 10:55:27;;;;;;;2.55;1.50;;;;;;;39.32;16.33;100120.69;5059329;28;20507;-80
2022/06/21 10:58:05;;;;;;;3.53;1.80;;;;;;;39.28;15.74;100131.78;5073315;28;20053;-80
2022/06/21 11:03:39;;;;;;;2.33;1.70;;;;;;;40.78;15.76;100125.88;5036832;28;20061;-80
2022/06/21 11:06:18;;;;;;;3.25;1.77;;;;;;;41.35;14.77;100121.44;5033128;28;20468;-81
2022/06/21 11:08:57;;;;;;;4.05;1.50;;;;;;;42.42;13.84;100114.06;5032847;28;20068;-81
2022/06/21 11:11:31;;;;;;;2.75;1.40;;;;;;;41.59;15.06;100108.31;5033043;28;20056;-81
2022/06/21 11:14:07;;;;;;;3.05;1.40;;;;;;;41.54;15.34;100112.81;5033125;28;20049;-79
2022/06/21 11:16:47;;;;;;;3.58;1.70;;;;;;;42.14;14.49;100108.44;5032728;28;20481;-80
2022/06/21 11:19:24;;;;;;;3.60;1.55;;;;;;;42.85;14.28;100107.50;5033232;28;20053;-80
2022/06/21 11:22:11;;;;;;;2.95;1.42;;;;;;;43.78;13.14;100090.50;5033038;28;20060;-81
2022/06/21 11:24:48;;;;;;;3.83;1.60;;;;;;;43.75;14.41;100093.78;5032735;28;20057;-80
2022/06/21 11:27:22;;;;;;;2.67;1.55;;;;;;;43.69;13.19;100096.81;5032714;28;20057;-80
2022/06/21 11:29:56;;;;;;;3.67;1.80;;;;;;;43.11;13.83;100094.38;5032735;28;20406;-78
2022/06/21 11:32:30;;;;;;;2.90;1.63;;;;;;;43.41;13.85;100088.41;5032651;28;20057;-80
2022/06/21 11:35:12;;;;;;;4.20;2.00;;;;;;;43.08;14.21;100089.63;5032454;28;20053;-79
2022/06/21 11:38:01;;;;;;;2.92;1.60;;;;;;;41.82;15.05;100085.53;5032395;28;20057;-79
2022/06/21 11:40:40;;;;;;;3.15;1.63;;;;;;;42.22;14.88;100080.16;5032589;28;20060;-79
2022/06/21 11:43:24;;;;;;;3.10;1.45;;;;;;;42.76;14.35;100088.13;5032939;28;20057;-80
2022/06/21 11:46:00;;;;;;;3.65;1.70;;;;;;;42.05;14.23;100083.25;5033049;28;20053;-79
2022/06/21 11:49:10;;;;;;;3.22;1.52;;;;;;;40.97;16.08;100080.16;5032553;28;20046;-79
2022/06/21 11:51:59;;;;;;;6.80;1.90;;;;;;;40.92;15.44;100078.03;5032973;28;20064;-79
2022/06/21 11:54:34;;;;;;;3.60;1.63;;;;;;;40.92;15.49;100078.03;5032718;28;20061;-80
2022/06/21 11:57:14;;;;;;;4.07;1.55;;;;;;;40.92;15.76;100074.31;5033137;28;20076;-79
2022/06/21 11:59:48;;;;;;;2.80;1.40;;;;;;;40.26;16.11;100073.88;5053956;28;20048;-79
2022/06/21 12:02:22;;;;;;;3.03;1.50;;;;;;;39.64;16.75;100077.59;5084824;28;20075;-79
2022/06/21 12:04:59;;;;;;;2.95;1.40;;;;;;;38.63;17.52;100065.53;5092396;28;20048;-79
2022/06/21 12:07:34;;;;;;;3.55;1.80;;;;;;;38.19;17.66;100067.59;5095320;28;20048;-79
2022/06/21 12:10:09;;;;;;;3.42;1.30;;;;;;;37.47;18.76;100071.41;5096259;28;20134;-79
2022/06/21 12:12:48;;;;;;;2.83;1.50;;;;;;;36.70;19.38;100080.22;5096522;28;20078;-78
2022/06/21 12:15:34;;;;;;;4.57;1.77;;;;;;;35.74;20.49;100081.56;5096286;28;20463;-78
2022/06/21 12:18:07;;;;;;;4.35;1.50;;;;;;;34.87;21.22;100083.72;5096386;28;20070;-79
2022/06/21 12:20:41;;;;;;;3.85;1.30;;;;;;;34.11;21.84;100086.66;5100896;28;20048;-78
2022/06/21 12:23:15;;;;;;;5.75;1.48;;;;;;;33.60;22.88;100088.25;5095901;28;20442;-79
2022/06/21 12:25:45;;;;;;;3.25;1.95;;;;;;;33.02;23.34;100086.28;5096289;28;20052;-78
2022/06/21 12:28:15;;;;;;;3.80;1.70;;;;;;;32.20;23.83;100082.69;5095620;28;20055;-78
2022/06/21 12:30:43;;;;;;;3.00;1.58;;;;;;;31.72;24.79;100082.91;5095980;28;20052;-79
2022/06/21 12:33:14;;;;;;;2.47;1.48;;;;;;;31.54;25.15;100080.72;5096411;28;20055;-78
2022/06/21 12:35:46;;;;;;;3.08;1.73;;;;;;;30.99;26.13;100077.38;5097924;28;20044;-78
2022/06/21 12:38:19;;;;;;;2.45;1.60;;;;;;;31.90;25.77;100079.34;5095319;28;20170;-78
2022/06/21 12:40:55;;;;;;;3.03;1.35;;;;;;;32.79;23.86;100076.97;5095713;28;20438;-77
2022/06/21 12:43:36;;;;;;;3.92;1.75;;;;;;;33.51;23.50;100080.34;5095765;28;20483;-78
2022/06/21 12:46:06;;;;;;;3.65;2.05;;;;;;;34.49;22.38;100079.44;5095621;28;20048;-79
2022/06/21 12:48:59;;;;;;;3.22;1.77;;;;;;;34.91;22.18;100067.78;5095541;28;20048;-78
2022/06/21 12:51:32;;;;;;;3.47;1.48;;;;;;;35.68;21.46;100065.34;5095460;28;20060;-79
2022/06/21 12:54:31;;;;;;;4.03;1.60;;;;;;;36.42;20.52;100047.09;5095323;28;20056;-79
2022/06/21 12:57:25;;;;;;;2.25;1.45;;;;;;;36.69;20.46;100040.13;5093101;28;20519;-79
2022/06/21 13:00:15;;;;;;;2.65;1.50;;;;;;;37.70;19.07;100035.47;5084094;28;20048;-79
2022/06/21 13:03:14;;;;;;;3.33;1.38;;;;;;;37.36;18.89;100032.22;5074860;28;20066;-78
2022/06/21 13:05:55;;;;;;;2.20;1.20;;;;;;;37.09;18.94;100039.28;5079638;28;20052;-79
2022/06/21 13:09:04;;;;;;;4.60;1.70;;;;;;;37.07;19.60;100039.00;5074647;28;20056;-78
2022/06/21 13:12:00;;;;;;;3.40;1.70;;;;;;;36.71;19.39;100035.38;5074576;28;20055;-78
2022/06/21 13:15:01;;;;;;;3.42;1.48;;;;;;;34.90;20.87;100033.53;5074611;28;20059;-79
2022/06/21 13:17:43;;;;;;;4.03;1.40;;;;;;;33.84;22.00;100035.56;5074786;28;20055;-80
2022/06/21 13:20:22;;;;;;;3.00;1.30;;;;;;;33.45;22.65;100032.41;5074900;28;20415;-80
2022/06/21 13:23:03;;;;;;;3.55;1.60;;;;;;;32.82;23.11;100032.72;5074249;28;20435;-79
2022/06/21 13:25:46;;;;;;;3.65;1.80;;;;;;;33.04;23.41;100037.56;5074769;28;20053;-79
2022/06/21 13:28:39;;;;;;;2.55;1.40;;;;;;;33.20;24.47;100036.44;5074692;28;20089;-80
2022/06/21 13:31:17;;;;;;;2.72;1.73;;;;;;;33.65;22.37;100041.38;5074450;28;20153;-79
2022/06/21 13:34:00;;;;;;;3.47;1.30;;;;;;;33.54;22.75;100030.31;5074281;28;20049;-80
2022/06/21 13:36:35;;;;;;;4.05;1.48;;;;;;;33.19;22.71;100029.09;5074539;28;20068;-80
2022/06/21 13:39:13;;;;;;;2.75;1.33;;;;;;;32.75;23.15;100012.84;5074232;28;20040;-80
2022/06/21 13:44:38;;;;;;;3.22;1.50;;;;;;;32.22;24.34;100015.94;5076149;28;20416;-79
2022/06/21 13:47:13;;;;;;;3.08;1.33;;;;;;;31.48;24.77;100022.16;5073973;28;20053;-80
2022/06/21 13:49:44;;;;;;;3.45;1.30;;;;;;;31.53;25.22;100017.84;5074421;28;20048;-79
2022/06/21 13:52:22;;;;;;;3.17;1.50;;;;;;;31.42;25.18;100018.25;5074124;28;20063;-79
2022/06/21 13:54:58;;;;;;;4.43;1.87;;;;;;;31.32;25.53;100016.56;5074282;28;20393;-79
2022/06/21 13:57:47;;;;;;;3.45;1.48;;;;;;;31.06;25.51;100021.66;5074101;28;20389;-79
2022/06/21 14:00:16;;;;;;;3.50;1.48;;;;;;;30.91;26.52;100030.00;5074301;28;20049;-79
2022/06/21 14:02:55;;;;;;;2.25;1.55;;;;;;;31.36;26.52;100020.91;5073481;28;20061;-79
2022/06/21 14:05:30;;;;;;;2.65;1.20;;;;;;;31.36;26.25;100020.13;5074359;28;20391;-79
2022/06/21 14:08:03;;;;;;;4.05;1.40;;;;;;;32.00;26.54;100011.06;5073987;28;20051;-79
2022/06/21 14:10:37;;;;;;;3.95;1.67;;;;;;;32.33;24.60;100011.31;5074112;28;20048;-79
2022/06/21 14:13:11;;;;;;;3.88;1.45;;;;;;;32.63;24.50;100005.16;5074173;28;20056;-79
2022/06/21 14:15:46;;;;;;;2.50;1.55;;;;;;;32.16;24.57;100005.03;5073931;28;20045;-80
2022/06/21 14:18:19;;;;;;;4.07;1.40;;;;;;;32.26;24.42;100002.19;5073575;28;20496;-80
2022/06/21 14:20:55;;;;;;;2.58;1.23;;;;;;;32.74;25.03;99997.66;5073868;28;20052;-79
2022/06/21 14:23:29;;;;;;;4.82;1.70;;;;;;;33.04;24.28;100000.84;5073977;28;20075;-79
2022/06/21 14:26:05;;;;;;;2.15;1.17;;;;;;;32.92;23.73;99996.03;5073972;28;20061;-79
2022/06/21 14:28:44;;;;;;;3.47;1.55;;;;;;;32.53;24.41;100001.44;5073025;28;20060;-79
2022/06/21 14:31:21;;;;;;;2.47;1.30;;;;;;;32.53;24.48;99996.50;5073704;28;20404;-80
2022/06/21 14:33:57;;;;;;;3.90;1.65;;;;;;;32.19;24.08;100000.38;5072411;28;20052;-79
2022/06/21 14:36:30;;;;;;;3.25;1.40;;;;;;;32.20;24.27;99989.69;5073486;28;20493;-79
2022/06/21 14:39:03;;;;;;;2.05;1.33;;;;;;;32.22;25.43;99982.16;5073526;28;20052;-79
2022/06/21 14:41:37;;;;;;;2.88;1.50;;;;;;;32.49;25.55;99980.63;5073296;28;20055;-79
2022/06/21 14:44:15;;;;;;;4.10;1.45;;;;;;;32.19;24.40;99968.69;5073174;28;20503;-79
2022/06/21 14:46:52;;;;;;;2.33;1.20;;;;;;;32.16;24.90;99961.81;5073170;28;20082;-79